sensor_id;sensor_type;location;lat;lon;timestamp;temperature;humidity
70366;DHT22;57787;48.216;12.396;2024-01-15T00:00:30;-4.80;87.80
70366;DHT22;57787;48.216;12.396;2024-01-15T00:03:00;-4.90;87.30
70366;DHT22;57787;48.216;12.396;2024-01-15T00:05:27;-5.00;87.00
70366;DHT22;57787;48.216;12.396;2024-01-15T00:07:53;-5.20;86.60
70366;DHT22;57787;48.216;12.396;2024-01-15T00:10:20;-5.30;87.60
70366;DHT22;57787;48.216;12.396;2024-01-15T00:12:47;-5.40;86.80
70366;DHT22;57787;48.216;12.396;2024-01-15T00:15:14;-5.50;86.80
70366;DHT22;57787;48.216;12.396;2024-01-15T00:17:41;-5.60;87.10
70366;DHT22;57787;48.216;12.396;2024-01-15T00:20:08;-5.70;87.30
70366;DHT22;57787;48.216;12.396;2024-01-15T00:22:36;-5.80;87.20
70366;DHT22;57787;48.216;12.396;2024-01-15T00:25:03;-5.90;86.90
70366;DHT22;57787;48.216;12.396;2024-01-15T00:27:30;-5.90;87.20
70366;DHT22;57787;48.216;12.396;2024-01-15T00:29:57;-6.00;87.60
70366;DHT22;57787;48.216;12.396;2024-01-15T00:32:24;-6.00;87.20
70366;DHT22;57787;48.216;12.396;2024-01-15T00:34:50;-6.10;87.50
70366;DHT22;57787;48.216;12.396;2024-01-15T00:37:19;-6.10;87.30
70366;DHT22;57787;48.216;12.396;2024-01-15T00:39:45;-6.10;87.60
70366;DHT22;57787;48.216;12.396;2024-01-15T00:42:14;-6.10;87.80
70366;DHT22;57787;48.216;12.396;2024-01-15T00:44:41;-6.10;87.80
70366;DHT22;57787;48.216;12.396;2024-01-15T00:47:08;-6.10;88.10
70366;DHT22;57787;48.216;12.396;2024-01-15T00:49:38;-6.00;88.10
70366;DHT22;57787;48.216;12.396;2024-01-15T00:52:05;-6.00;88.40
70366;DHT22;57787;48.216;12.396;2024-01-15T00:54:32;-5.90;88.50
70366;DHT22;57787;48.216;12.396;2024-01-15T00:57:00;-5.80;88.60
70366;DHT22;57787;48.216;12.396;2024-01-15T00:59:27;-5.80;88.40
70366;DHT22;57787;48.216;12.396;2024-01-15T01:01:54;-5.60;89.10
70366;DHT22;57787;48.216;12.396;2024-01-15T01:04:21;-5.40;89.20
70366;DHT22;57787;48.216;12.396;2024-01-15T01:06:48;-5.20;90.00
70366;DHT22;57787;48.216;12.396;2024-01-15T01:09:15;-4.90;90.20
70366;DHT22;57787;48.216;12.396;2024-01-15T01:11:45;-4.70;90.40
70366;DHT22;57787;48.216;12.396;2024-01-15T01:14:12;-4.40;90.60
70366;DHT22;57787;48.216;12.396;2024-01-15T01:16:43;-4.10;90.80
70366;DHT22;57787;48.216;12.396;2024-01-15T01:19:10;-3.90;90.40
70366;DHT22;57787;48.216;12.396;2024-01-15T01:21:37;-3.80;90.40
70366;DHT22;57787;48.216;12.396;2024-01-15T01:24:04;-3.60;90.30
70366;DHT22;57787;48.216;12.396;2024-01-15T01:26:31;-3.50;90.00
70366;DHT22;57787;48.216;12.396;2024-01-15T01:28:59;-3.50;89.80
70366;DHT22;57787;48.216;12.396;2024-01-15T01:31:27;-3.50;89.40
70366;DHT22;57787;48.216;12.396;2024-01-15T01:33:57;-3.50;89.30
70366;DHT22;57787;48.216;12.396;2024-01-15T01:36:24;-3.40;89.30
70366;DHT22;57787;48.216;12.396;2024-01-15T01:38:50;-3.40;89.30
70366;DHT22;57787;48.216;12.396;2024-01-15T01:41:17;-3.20;89.00
70366;DHT22;57787;48.216;12.396;2024-01-15T01:43:46;-3.20;88.80
70366;DHT22;57787;48.216;12.396;2024-01-15T01:46:13;-3.20;88.40
70366;DHT22;57787;48.216;12.396;2024-01-15T01:48:40;-3.20;88.50
70366;DHT22;57787;48.216;12.396;2024-01-15T01:51:07;-3.30;87.90
70366;DHT22;57787;48.216;12.396;2024-01-15T01:53:34;-3.40;88.00
70366;DHT22;57787;48.216;12.396;2024-01-15T01:56:03;-3.40;88.20
70366;DHT22;57787;48.216;12.396;2024-01-15T01:58:31;-3.40;88.20
70366;DHT22;57787;48.216;12.396;2024-01-15T02:01:00;-3.50;87.70
70366;DHT22;57787;48.216;12.396;2024-01-15T02:03:27;-3.60;87.60
70366;DHT22;57787;48.216;12.396;2024-01-15T02:05:54;-3.60;88.20
70366;DHT22;57787;48.216;12.396;2024-01-15T02:08:21;-3.70;88.00
70366;DHT22;57787;48.216;12.396;2024-01-15T02:10:48;-3.60;88.10
70366;DHT22;57787;48.216;12.396;2024-01-15T02:13:18;-3.60;88.20
70366;DHT22;57787;48.216;12.396;2024-01-15T02:15:45;-3.60;88.20
70366;DHT22;57787;48.216;12.396;2024-01-15T02:18:12;-3.60;87.80
70366;DHT22;57787;48.216;12.396;2024-01-15T02:20:39;-3.70;88.00
70366;DHT22;57787;48.216;12.396;2024-01-15T02:23:09;-3.50;88.40
70366;DHT22;57787;48.216;12.396;2024-01-15T02:25:39;-3.60;87.80
70366;DHT22;57787;48.216;12.396;2024-01-15T02:28:08;-3.50;87.30
70366;DHT22;57787;48.216;12.396;2024-01-15T02:30:36;-3.60;87.20
70366;DHT22;57787;48.216;12.396;2024-01-15T02:33:04;-3.50;87.30
70366;DHT22;57787;48.216;12.396;2024-01-15T02:35:32;-3.50;87.00
70366;DHT22;57787;48.216;12.396;2024-01-15T02:37:59;-3.60;87.30
70366;DHT22;57787;48.216;12.396;2024-01-15T02:40:28;-3.60;87.30
70366;DHT22;57787;48.216;12.396;2024-01-15T02:42:56;-3.70;87.50
70366;DHT22;57787;48.216;12.396;2024-01-15T02:45:22;-3.80;87.40
70366;DHT22;57787;48.216;12.396;2024-01-15T02:47:50;-3.70;88.10
70366;DHT22;57787;48.216;12.396;2024-01-15T02:50:18;-3.80;87.50
70366;DHT22;57787;48.216;12.396;2024-01-15T02:52:46;-3.80;87.60
70366;DHT22;57787;48.216;12.396;2024-01-15T02:55:12;-3.80;87.50
70366;DHT22;57787;48.216;12.396;2024-01-15T02:57:40;-3.80;87.50
70366;DHT22;57787;48.216;12.396;2024-01-15T03:00:07;-3.80;88.00
70366;DHT22;57787;48.216;12.396;2024-01-15T03:02:37;-3.80;87.40
70366;DHT22;57787;48.216;12.396;2024-01-15T03:05:09;-3.80;87.50
70366;DHT22;57787;48.216;12.396;2024-01-15T03:07:36;-3.80;87.60
70366;DHT22;57787;48.216;12.396;2024-01-15T03:10:04;-3.90;87.60
70366;DHT22;57787;48.216;12.396;2024-01-15T03:12:31;-3.90;87.90
70366;DHT22;57787;48.216;12.396;2024-01-15T03:15:01;-3.90;87.70
70366;DHT22;57787;48.216;12.396;2024-01-15T03:17:28;-4.00;87.60
70366;DHT22;57787;48.216;12.396;2024-01-15T03:19:55;-4.00;87.90
70366;DHT22;57787;48.216;12.396;2024-01-15T03:22:22;-4.00;87.60
70366;DHT22;57787;48.216;12.396;2024-01-15T03:24:49;-4.00;87.60
70366;DHT22;57787;48.216;12.396;2024-01-15T03:27:16;-4.00;87.60
70366;DHT22;57787;48.216;12.396;2024-01-15T03:29:43;-4.00;87.70
70366;DHT22;57787;48.216;12.396;2024-01-15T03:32:11;-4.00;88.00
70366;DHT22;57787;48.216;12.396;2024-01-15T03:34:38;-4.00;87.90
70366;DHT22;57787;48.216;12.396;2024-01-15T03:37:08;-4.00;88.00
70366;DHT22;57787;48.216;12.396;2024-01-15T03:39:36;-3.90;87.80
70366;DHT22;57787;48.216;12.396;2024-01-15T03:42:03;-3.80;88.20
70366;DHT22;57787;48.216;12.396;2024-01-15T03:44:30;-3.80;88.00
70366;DHT22;57787;48.216;12.396;2024-01-15T03:46:57;-3.70;87.70
70366;DHT22;57787;48.216;12.396;2024-01-15T03:49:24;-3.70;87.80
70366;DHT22;57787;48.216;12.396;2024-01-15T03:51:52;-3.70;87.70
70366;DHT22;57787;48.216;12.396;2024-01-15T03:54:19;-3.60;87.60
70366;DHT22;57787;48.216;12.396;2024-01-15T03:56:49;-3.60;87.30
70366;DHT22;57787;48.216;12.396;2024-01-15T03:59:16;-3.70;87.40
70366;DHT22;57787;48.216;12.396;2024-01-15T04:01:48;-3.80;87.30
70366;DHT22;57787;48.216;12.396;2024-01-15T04:04:17;-3.80;87.10
70366;DHT22;57787;48.216;12.396;2024-01-15T04:06:44;-3.80;87.30
70366;DHT22;57787;48.216;12.396;2024-01-15T04:09:14;-3.90;87.40
70366;DHT22;57787;48.216;12.396;2024-01-15T04:11:41;-3.90;87.20
70366;DHT22;57787;48.216;12.396;2024-01-15T04:14:08;-3.80;87.30
70366;DHT22;57787;48.216;12.396;2024-01-15T04:16:35;-3.80;87.30
70366;DHT22;57787;48.216;12.396;2024-01-15T04:19:03;-3.90;87.20
70366;DHT22;57787;48.216;12.396;2024-01-15T04:21:30;-3.80;87.50
70366;DHT22;57787;48.216;12.396;2024-01-15T04:23:57;-3.80;87.20
70366;DHT22;57787;48.216;12.396;2024-01-15T04:26:23;-3.80;87.70
70366;DHT22;57787;48.216;12.396;2024-01-15T04:28:50;-3.70;87.60
70366;DHT22;57787;48.216;12.396;2024-01-15T04:31:20;-3.60;87.60
70366;DHT22;57787;48.216;12.396;2024-01-15T04:33:49;-3.60;87.60
70366;DHT22;57787;48.216;12.396;2024-01-15T04:36:16;-3.40;87.80
70366;DHT22;57787;48.216;12.396;2024-01-15T04:38:42;-3.40;87.70
70366;DHT22;57787;48.216;12.396;2024-01-15T04:41:13;-3.30;87.90
70366;DHT22;57787;48.216;12.396;2024-01-15T04:43:39;-3.20;87.70
70366;DHT22;57787;48.216;12.396;2024-01-15T04:46:06;-3.20;87.40
70366;DHT22;57787;48.216;12.396;2024-01-15T04:48:34;-3.20;87.20
70366;DHT22;57787;48.216;12.396;2024-01-15T04:51:03;-3.20;87.20
70366;DHT22;57787;48.216;12.396;2024-01-15T04:53:32;-3.20;87.40
70366;DHT22;57787;48.216;12.396;2024-01-15T04:55:58;-3.10;87.30
70366;DHT22;57787;48.216;12.396;2024-01-15T04:58:25;-3.10;87.20
70366;DHT22;57787;48.216;12.396;2024-01-15T05:00:55;-3.00;87.30
70366;DHT22;57787;48.216;12.396;2024-01-15T05:03:22;-2.90;87.50
70366;DHT22;57787;48.216;12.396;2024-01-15T05:05:49;-2.90;87.50
70366;DHT22;57787;48.216;12.396;2024-01-15T05:08:16;-2.80;87.50
70366;DHT22;57787;48.216;12.396;2024-01-15T05:10:45;-2.70;87.60
70366;DHT22;57787;48.216;12.396;2024-01-15T05:13:14;-2.60;87.60
70366;DHT22;57787;48.216;12.396;2024-01-15T05:15:41;-2.50;87.40
70366;DHT22;57787;48.216;12.396;2024-01-15T05:18:08;-2.40;87.10
70366;DHT22;57787;48.216;12.396;2024-01-15T05:20:35;-2.30;86.80
70366;DHT22;57787;48.216;12.396;2024-01-15T05:23:01;-2.30;87.00
70366;DHT22;57787;48.216;12.396;2024-01-15T05:25:28;-2.30;87.00
70366;DHT22;57787;48.216;12.396;2024-01-15T05:27:55;-2.20;86.80
70366;DHT22;57787;48.216;12.396;2024-01-15T05:30:22;-2.20;86.30
70366;DHT22;57787;48.216;12.396;2024-01-15T05:32:49;-2.20;86.40
70366;DHT22;57787;48.216;12.396;2024-01-15T05:35:17;-2.20;86.40
70366;DHT22;57787;48.216;12.396;2024-01-15T05:37:48;-2.20;86.40
70366;DHT22;57787;48.216;12.396;2024-01-15T05:40:15;-2.10;86.40
70366;DHT22;57787;48.216;12.396;2024-01-15T05:42:42;-2.20;86.40
70366;DHT22;57787;48.216;12.396;2024-01-15T05:45:09;-2.10;86.00
70366;DHT22;57787;48.216;12.396;2024-01-15T05:47:36;-2.10;86.00
70366;DHT22;57787;48.216;12.396;2024-01-15T05:50:03;-2.00;85.60
70366;DHT22;57787;48.216;12.396;2024-01-15T05:52:31;-2.00;86.10
70366;DHT22;57787;48.216;12.396;2024-01-15T05:54:58;-2.00;85.50
70366;DHT22;57787;48.216;12.396;2024-01-15T05:57:25;-2.00;85.90
70366;DHT22;57787;48.216;12.396;2024-01-15T05:59:52;-2.00;85.40
70366;DHT22;57787;48.216;12.396;2024-01-15T06:02:21;-1.90;85.60
70366;DHT22;57787;48.216;12.396;2024-01-15T06:04:48;-1.90;85.60
70366;DHT22;57787;48.216;12.396;2024-01-15T06:07:15;-1.90;85.00
70366;DHT22;57787;48.216;12.396;2024-01-15T06:09:43;-1.80;85.40
70366;DHT22;57787;48.216;12.396;2024-01-15T06:12:10;-1.80;85.20
70366;DHT22;57787;48.216;12.396;2024-01-15T06:14:39;-1.80;85.00
70366;DHT22;57787;48.216;12.396;2024-01-15T06:17:05;-1.80;85.00
70366;DHT22;57787;48.216;12.396;2024-01-15T06:19:34;-1.80;85.10
70366;DHT22;57787;48.216;12.396;2024-01-15T06:22:01;-1.80;85.50
70366;DHT22;57787;48.216;12.396;2024-01-15T06:24:37;-1.80;85.70
70366;DHT22;57787;48.216;12.396;2024-01-15T06:27:04;-1.80;85.40
70366;DHT22;57787;48.216;12.396;2024-01-15T06:29:31;-1.80;85.80
70366;DHT22;57787;48.216;12.396;2024-01-15T06:31:59;-1.70;86.00
70366;DHT22;57787;48.216;12.396;2024-01-15T06:34:26;-1.70;85.70
70366;DHT22;57787;48.216;12.396;2024-01-15T06:36:54;-1.80;85.30
70366;DHT22;57787;48.216;12.396;2024-01-15T06:39:21;-1.70;85.40
70366;DHT22;57787;48.216;12.396;2024-01-15T06:41:48;-1.70;85.30
70366;DHT22;57787;48.216;12.396;2024-01-15T06:44:14;-1.70;85.40
70366;DHT22;57787;48.216;12.396;2024-01-15T06:46:42;-1.80;85.20
70366;DHT22;57787;48.216;12.396;2024-01-15T06:49:09;-1.70;84.80
70366;DHT22;57787;48.216;12.396;2024-01-15T06:51:37;-1.70;85.00
70366;DHT22;57787;48.216;12.396;2024-01-15T06:54:04;-1.70;85.00
70366;DHT22;57787;48.216;12.396;2024-01-15T06:56:31;-1.60;84.90
70366;DHT22;57787;48.216;12.396;2024-01-15T06:58:57;-1.60;84.90
70366;DHT22;57787;48.216;12.396;2024-01-15T07:01:24;-1.60;84.60
70366;DHT22;57787;48.216;12.396;2024-01-15T07:03:51;-1.60;85.50
70366;DHT22;57787;48.216;12.396;2024-01-15T07:06:18;-1.60;85.40
70366;DHT22;57787;48.216;12.396;2024-01-15T07:08:45;-1.60;84.70
70366;DHT22;57787;48.216;12.396;2024-01-15T07:11:12;-1.60;84.70
70366;DHT22;57787;48.216;12.396;2024-01-15T07:13:39;-1.50;84.80
70366;DHT22;57787;48.216;12.396;2024-01-15T07:16:07;-1.50;84.00
70366;DHT22;57787;48.216;12.396;2024-01-15T07:18:35;-1.50;84.40
70366;DHT22;57787;48.216;12.396;2024-01-15T07:21:02;-1.50;84.30
70366;DHT22;57787;48.216;12.396;2024-01-15T07:23:30;-1.40;84.20
70366;DHT22;57787;48.216;12.396;2024-01-15T07:25:57;-1.40;84.20
70366;DHT22;57787;48.216;12.396;2024-01-15T07:28:24;-1.40;84.50
70366;DHT22;57787;48.216;12.396;2024-01-15T07:30:51;-1.40;84.60
70366;DHT22;57787;48.216;12.396;2024-01-15T07:33:18;-1.30;84.50
70366;DHT22;57787;48.216;12.396;2024-01-15T07:35:46;-1.30;83.70
70366;DHT22;57787;48.216;12.396;2024-01-15T07:38:14;-1.30;84.10
70366;DHT22;57787;48.216;12.396;2024-01-15T07:40:40;-1.20;83.80
70366;DHT22;57787;48.216;12.396;2024-01-15T07:43:07;-1.20;84.00
70366;DHT22;57787;48.216;12.396;2024-01-15T07:45:34;-1.20;83.60
70366;DHT22;57787;48.216;12.396;2024-01-15T07:48:01;-1.10;83.30
70366;DHT22;57787;48.216;12.396;2024-01-15T07:50:29;-1.10;82.90
70366;DHT22;57787;48.216;12.396;2024-01-15T07:52:55;-1.00;83.40
70366;DHT22;57787;48.216;12.396;2024-01-15T07:55:22;-1.00;82.70
70366;DHT22;57787;48.216;12.396;2024-01-15T07:57:49;-0.90;82.20
70366;DHT22;57787;48.216;12.396;2024-01-15T08:00:28;-0.90;82.50
70366;DHT22;57787;48.216;12.396;2024-01-15T08:02:55;-0.80;82.40
70366;DHT22;57787;48.216;12.396;2024-01-15T08:05:22;-0.80;82.40
70366;DHT22;57787;48.216;12.396;2024-01-15T08:07:48;-0.80;82.30
70366;DHT22;57787;48.216;12.396;2024-01-15T08:10:15;-0.80;82.90
70366;DHT22;57787;48.216;12.396;2024-01-15T08:12:42;-0.70;82.20
70366;DHT22;57787;48.216;12.396;2024-01-15T08:15:09;-0.70;81.90
70366;DHT22;57787;48.216;12.396;2024-01-15T08:17:36;-0.60;81.60
70366;DHT22;57787;48.216;12.396;2024-01-15T08:20:03;-0.60;81.40
70366;DHT22;57787;48.216;12.396;2024-01-15T08:22:32;-0.50;81.20
70366;DHT22;57787;48.216;12.396;2024-01-15T08:24:58;-0.40;81.10
70366;DHT22;57787;48.216;12.396;2024-01-15T08:27:29;-0.30;81.40
70366;DHT22;57787;48.216;12.396;2024-01-15T08:29:55;-0.30;80.70
70366;DHT22;57787;48.216;12.396;2024-01-15T08:32:23;-0.20;80.30
70366;DHT22;57787;48.216;12.396;2024-01-15T08:34:49;-0.10;80.10
70366;DHT22;57787;48.216;12.396;2024-01-15T08:37:18;0.00;80.40
70366;DHT22;57787;48.216;12.396;2024-01-15T08:39:46;0.00;80.10
70366;DHT22;57787;48.216;12.396;2024-01-15T08:42:15;0.10;79.90
70366;DHT22;57787;48.216;12.396;2024-01-15T08:44:42;0.30;79.20
70366;DHT22;57787;48.216;12.396;2024-01-15T08:47:24;0.40;79.70
70366;DHT22;57787;48.216;12.396;2024-01-15T08:49:52;0.50;78.10
70366;DHT22;57787;48.216;12.396;2024-01-15T08:52:19;0.60;78.50
70366;DHT22;57787;48.216;12.396;2024-01-15T08:54:46;0.60;77.50
70366;DHT22;57787;48.216;12.396;2024-01-15T08:57:14;0.70;77.30
70366;DHT22;57787;48.216;12.396;2024-01-15T08:59:40;0.70;77.70
70366;DHT22;57787;48.216;12.396;2024-01-15T09:02:08;0.70;77.50
70366;DHT22;57787;48.216;12.396;2024-01-15T09:04:34;0.80;78.40
70366;DHT22;57787;48.216;12.396;2024-01-15T09:07:01;0.80;77.30
70366;DHT22;57787;48.216;12.396;2024-01-15T09:09:29;0.90;77.70
70366;DHT22;57787;48.216;12.396;2024-01-15T09:11:55;0.90;77.80
70366;DHT22;57787;48.216;12.396;2024-01-15T09:14:23;0.90;77.20
70366;DHT22;57787;48.216;12.396;2024-01-15T09:17:05;1.00;77.70
70366;DHT22;57787;48.216;12.396;2024-01-15T09:19:32;1.00;77.30
70366;DHT22;57787;48.216;12.396;2024-01-15T09:21:59;1.00;76.30
70366;DHT22;57787;48.216;12.396;2024-01-15T09:24:27;1.10;78.00
70366;DHT22;57787;48.216;12.396;2024-01-15T09:26:55;1.10;77.30
70366;DHT22;57787;48.216;12.396;2024-01-15T09:29:22;1.10;76.80
70366;DHT22;57787;48.216;12.396;2024-01-15T09:31:50;1.20;76.70
70366;DHT22;57787;48.216;12.396;2024-01-15T09:34:18;1.20;77.70
70366;DHT22;57787;48.216;12.396;2024-01-15T09:36:45;1.10;76.30
70366;DHT22;57787;48.216;12.396;2024-01-15T09:39:12;1.10;76.30
70366;DHT22;57787;48.216;12.396;2024-01-15T09:41:39;1.10;75.80
70366;DHT22;57787;48.216;12.396;2024-01-15T09:44:07;1.20;76.50
70366;DHT22;57787;48.216;12.396;2024-01-15T09:46:34;1.30;76.30
70366;DHT22;57787;48.216;12.396;2024-01-15T09:49:01;1.30;76.80
70366;DHT22;57787;48.216;12.396;2024-01-15T09:51:31;1.40;76.80
70366;DHT22;57787;48.216;12.396;2024-01-15T09:53:58;1.60;78.30
70366;DHT22;57787;48.216;12.396;2024-01-15T09:56:27;1.80;77.70
70366;DHT22;57787;48.216;12.396;2024-01-15T09:58:54;1.90;77.30
70366;DHT22;57787;48.216;12.396;2024-01-15T10:01:24;2.00;77.90
70366;DHT22;57787;48.216;12.396;2024-01-15T10:03:51;2.10;76.60
70366;DHT22;57787;48.216;12.396;2024-01-15T10:06:18;2.30;75.80
70366;DHT22;57787;48.216;12.396;2024-01-15T10:08:49;2.50;75.60
70366;DHT22;57787;48.216;12.396;2024-01-15T10:11:16;2.60;74.60
70366;DHT22;57787;48.216;12.396;2024-01-15T10:13:43;2.70;73.30
70366;DHT22;57787;48.216;12.396;2024-01-15T10:16:12;2.90;73.00
70366;DHT22;57787;48.216;12.396;2024-01-15T10:18:39;3.00;72.10
70366;DHT22;57787;48.216;12.396;2024-01-15T10:21:07;3.20;73.40
70366;DHT22;57787;48.216;12.396;2024-01-15T10:23:34;3.30;71.50
70366;DHT22;57787;48.216;12.396;2024-01-15T10:26:02;3.40;71.30
70366;DHT22;57787;48.216;12.396;2024-01-15T10:28:31;3.50;70.10
70366;DHT22;57787;48.216;12.396;2024-01-15T10:30:59;3.60;70.20
70366;DHT22;57787;48.216;12.396;2024-01-15T10:33:26;3.70;69.80
70366;DHT22;57787;48.216;12.396;2024-01-15T10:35:56;3.80;69.40
70366;DHT22;57787;48.216;12.396;2024-01-15T10:38:23;3.70;67.20
70366;DHT22;57787;48.216;12.396;2024-01-15T10:40:51;3.80;68.00
70366;DHT22;57787;48.216;12.396;2024-01-15T10:43:19;4.00;68.00
70366;DHT22;57787;48.216;12.396;2024-01-15T10:45:45;4.10;68.40
70366;DHT22;57787;48.216;12.396;2024-01-15T10:48:13;4.10;66.70
70366;DHT22;57787;48.216;12.396;2024-01-15T10:50:44;4.10;66.00
70366;DHT22;57787;48.216;12.396;2024-01-15T10:53:14;4.10;66.90
70366;DHT22;57787;48.216;12.396;2024-01-15T10:55:42;4.00;66.20
70366;DHT22;57787;48.216;12.396;2024-01-15T10:58:09;4.00;66.80
70366;DHT22;57787;48.216;12.396;2024-01-15T11:00:37;4.10;66.00
70366;DHT22;57787;48.216;12.396;2024-01-15T11:03:05;4.20;66.20
70366;DHT22;57787;48.216;12.396;2024-01-15T11:05:38;4.20;65.80
70366;DHT22;57787;48.216;12.396;2024-01-15T11:08:06;4.30;66.10
70366;DHT22;57787;48.216;12.396;2024-01-15T11:10:44;4.40;66.00
70366;DHT22;57787;48.216;12.396;2024-01-15T11:13:19;4.40;65.40
70366;DHT22;57787;48.216;12.396;2024-01-15T11:16:01;4.50;66.20
70366;DHT22;57787;48.216;12.396;2024-01-15T11:18:39;4.50;65.90
70366;DHT22;57787;48.216;12.396;2024-01-15T11:23:45;4.30;65.90
70366;DHT22;57787;48.216;12.396;2024-01-15T11:26:43;4.30;65.80
70366;DHT22;57787;48.216;12.396;2024-01-15T11:29:29;4.30;66.60
70366;DHT22;57787;48.216;12.396;2024-01-15T11:32:01;4.00;66.20
70366;DHT22;57787;48.216;12.396;2024-01-15T11:34:56;3.90;66.80
70366;DHT22;57787;48.216;12.396;2024-01-15T11:40:20;3.30;67.90
70366;DHT22;57787;48.216;12.396;2024-01-15T11:42:48;3.20;68.30
70366;DHT22;57787;48.216;12.396;2024-01-15T11:45:18;3.00;68.70
70366;DHT22;57787;48.216;12.396;2024-01-15T11:50:38;3.30;68.20
70366;DHT22;57787;48.216;12.396;2024-01-15T11:53:08;3.60;68.30
70366;DHT22;57787;48.216;12.396;2024-01-15T11:55:41;3.80;67.50
70366;DHT22;57787;48.216;12.396;2024-01-15T11:58:13;4.00;67.50
70366;DHT22;57787;48.216;12.396;2024-01-15T12:00:41;4.00;66.80
70366;DHT22;57787;48.216;12.396;2024-01-15T12:03:09;4.10;66.20
70366;DHT22;57787;48.216;12.396;2024-01-15T12:05:38;4.10;66.30
70366;DHT22;57787;48.216;12.396;2024-01-15T12:08:05;3.90;66.20
70366;DHT22;57787;48.216;12.396;2024-01-15T12:10:37;3.70;65.20
70366;DHT22;57787;48.216;12.396;2024-01-15T12:13:07;3.30;66.60
70366;DHT22;57787;48.216;12.396;2024-01-15T12:15:36;3.10;67.40
70366;DHT22;57787;48.216;12.396;2024-01-15T12:18:04;2.70;68.40
70366;DHT22;57787;48.216;12.396;2024-01-15T12:20:35;2.50;69.20
70366;DHT22;57787;48.216;12.396;2024-01-15T12:23:03;2.20;70.60
70366;DHT22;57787;48.216;12.396;2024-01-15T12:25:34;2.00;71.10
70366;DHT22;57787;48.216;12.396;2024-01-15T12:28:03;1.90;71.00
70366;DHT22;57787;48.216;12.396;2024-01-15T12:30:33;1.80;71.00
70366;DHT22;57787;48.216;12.396;2024-01-15T12:33:01;1.60;71.20
70366;DHT22;57787;48.216;12.396;2024-01-15T12:35:29;1.80;71.60
70366;DHT22;57787;48.216;12.396;2024-01-15T12:37:56;2.00;70.70
70366;DHT22;57787;48.216;12.396;2024-01-15T12:40:25;1.90;70.80
70366;DHT22;57787;48.216;12.396;2024-01-15T12:42:52;1.90;70.60
70366;DHT22;57787;48.216;12.396;2024-01-15T12:45:19;1.80;70.70
70366;DHT22;57787;48.216;12.396;2024-01-15T12:47:48;1.70;70.80
70366;DHT22;57787;48.216;12.396;2024-01-15T12:50:18;1.60;71.10
70366;DHT22;57787;48.216;12.396;2024-01-15T12:52:47;1.50;71.30
70366;DHT22;57787;48.216;12.396;2024-01-15T12:55:14;1.50;71.70
70366;DHT22;57787;48.216;12.396;2024-01-15T12:57:42;1.70;72.00
70366;DHT22;57787;48.216;12.396;2024-01-15T13:00:09;2.00;71.20
70366;DHT22;57787;48.216;12.396;2024-01-15T13:02:43;2.70;70.00
70366;DHT22;57787;48.216;12.396;2024-01-15T13:05:13;3.20;67.80
70366;DHT22;57787;48.216;12.396;2024-01-15T13:07:41;3.50;66.60
70366;DHT22;57787;48.216;12.396;2024-01-15T13:10:09;3.70;66.40
70366;DHT22;57787;48.216;12.396;2024-01-15T13:12:37;3.90;65.50
70366;DHT22;57787;48.216;12.396;2024-01-15T13:15:05;4.20;65.20
70366;DHT22;57787;48.216;12.396;2024-01-15T13:17:32;4.40;65.20
70366;DHT22;57787;48.216;12.396;2024-01-15T13:19:59;4.50;63.80
70366;DHT22;57787;48.216;12.396;2024-01-15T13:22:27;4.40;64.60
70366;DHT22;57787;48.216;12.396;2024-01-15T13:24:59;4.50;64.70
70366;DHT22;57787;48.216;12.396;2024-01-15T13:27:27;4.30;63.90
70366;DHT22;57787;48.216;12.396;2024-01-15T13:29:54;4.40;65.10
70366;DHT22;57787;48.216;12.396;2024-01-15T13:32:25;4.40;63.90
70366;DHT22;57787;48.216;12.396;2024-01-15T13:34:59;4.50;63.90
70366;DHT22;57787;48.216;12.396;2024-01-15T13:37:28;4.50;63.50
70366;DHT22;57787;48.216;12.396;2024-01-15T13:39:55;4.30;64.50
70366;DHT22;57787;48.216;12.396;2024-01-15T13:42:23;4.20;65.00
70366;DHT22;57787;48.216;12.396;2024-01-15T13:44:52;4.00;65.00
70366;DHT22;57787;48.216;12.396;2024-01-15T13:47:19;3.90;65.70
70366;DHT22;57787;48.216;12.396;2024-01-15T13:49:47;3.80;66.00
70366;DHT22;57787;48.216;12.396;2024-01-15T13:52:16;3.70;66.70
70366;DHT22;57787;48.216;12.396;2024-01-15T13:54:44;3.50;67.20
70366;DHT22;57787;48.216;12.396;2024-01-15T13:57:17;3.30;67.40
70366;DHT22;57787;48.216;12.396;2024-01-15T13:59:44;3.20;68.10
70366;DHT22;57787;48.216;12.396;2024-01-15T14:02:13;3.00;68.30
70366;DHT22;57787;48.216;12.396;2024-01-15T14:04:48;2.90;69.40
70366;DHT22;57787;48.216;12.396;2024-01-15T14:07:16;2.80;69.60
70366;DHT22;57787;48.216;12.396;2024-01-15T14:09:43;2.70;70.00
70366;DHT22;57787;48.216;12.396;2024-01-15T14:12:10;2.60;70.20
70366;DHT22;57787;48.216;12.396;2024-01-15T14:14:38;2.50;70.30
70366;DHT22;57787;48.216;12.396;2024-01-15T14:17:05;2.40;71.00
70366;DHT22;57787;48.216;12.396;2024-01-15T14:19:32;2.30;71.20
70366;DHT22;57787;48.216;12.396;2024-01-15T14:22:00;2.30;71.30
70366;DHT22;57787;48.216;12.396;2024-01-15T14:24:27;2.20;71.60
70366;DHT22;57787;48.216;12.396;2024-01-15T14:26:55;2.10;72.10
70366;DHT22;57787;48.216;12.396;2024-01-15T14:29:23;2.10;72.30
70366;DHT22;57787;48.216;12.396;2024-01-15T14:31:52;2.10;72.60
70366;DHT22;57787;48.216;12.396;2024-01-15T14:34:19;2.00;72.90
70366;DHT22;57787;48.216;12.396;2024-01-15T14:36:52;1.90;73.40
70366;DHT22;57787;48.216;12.396;2024-01-15T14:39:22;1.90;73.30
70366;DHT22;57787;48.216;12.396;2024-01-15T14:41:50;1.80;73.50
70366;DHT22;57787;48.216;12.396;2024-01-15T14:44:18;1.80;74.20
70366;DHT22;57787;48.216;12.396;2024-01-15T14:46:45;1.70;74.80
70366;DHT22;57787;48.216;12.396;2024-01-15T14:49:13;1.70;75.00
70366;DHT22;57787;48.216;12.396;2024-01-15T14:51:41;1.70;75.00
70366;DHT22;57787;48.216;12.396;2024-01-15T14:54:11;1.70;76.10
70366;DHT22;57787;48.216;12.396;2024-01-15T14:56:39;1.60;76.30
70366;DHT22;57787;48.216;12.396;2024-01-15T14:59:05;1.50;76.40
70366;DHT22;57787;48.216;12.396;2024-01-15T15:01:33;1.50;76.70
70366;DHT22;57787;48.216;12.396;2024-01-15T15:04:00;1.50;77.00
70366;DHT22;57787;48.216;12.396;2024-01-15T15:06:27;1.50;77.80
70366;DHT22;57787;48.216;12.396;2024-01-15T15:08:59;1.50;78.00
70366;DHT22;57787;48.216;12.396;2024-01-15T15:11:27;1.50;78.20
70366;DHT22;57787;48.216;12.396;2024-01-15T15:13:53;1.40;78.90
70366;DHT22;57787;48.216;12.396;2024-01-15T15:16:20;1.40;79.10
70366;DHT22;57787;48.216;12.396;2024-01-15T15:18:47;1.30;80.20
70366;DHT22;57787;48.216;12.396;2024-01-15T15:21:14;1.30;81.00
70366;DHT22;57787;48.216;12.396;2024-01-15T15:23:43;1.20;81.50
70366;DHT22;57787;48.216;12.396;2024-01-15T15:26:09;1.20;81.50
70366;DHT22;57787;48.216;12.396;2024-01-15T15:28:37;1.20;82.00
70366;DHT22;57787;48.216;12.396;2024-01-15T15:31:04;1.10;82.40
70366;DHT22;57787;48.216;12.396;2024-01-15T15:33:36;1.10;82.30
70366;DHT22;57787;48.216;12.396;2024-01-15T15:36:03;1.00;82.70